sensor_id;sensor_type;location;lat;lon;timestamp;pressure;altitude;pressure_sealevel;temperature;humidity
33151;BME280;19508;42.578;23.416;2023-04-02T00:02:55;92818.31;;;7.12;68.29
33151;BME280;19508;42.578;23.416;2023-04-02T00:08:01;92816.25;;;7.24;68.13
33151;BME280;19508;42.578;23.416;2023-04-02T00:10:35;92802.19;;;7.01;68.71
33151;BME280;19508;42.578;23.416;2023-04-02T00:15:42;92796.19;;;6.89;69.43
33151;BME280;19508;42.578;23.416;2023-04-02T00:18:12;92796.38;;;6.77;70.02
33151;BME280;19508;42.578;23.416;2023-04-02T00:20:41;92785.94;;;6.76;69.58
33151;BME280;19508;42.578;23.416;2023-04-02T00:23:11;92765.19;;;6.61;69.38
33151;BME280;19508;42.578;23.416;2023-04-02T00:25:38;92783.38;;;6.59;71.10
33151;BME280;19508;42.578;23.416;2023-04-02T00:28:22;92781.59;;;7.02;65.41
33151;BME280;19508;42.578;23.416;2023-04-02T00:30:50;92766.34;;;7.50;62.74
33151;BME280;19508;42.578;23.416;2023-04-02T00:33:27;92771.59;;;7.82;62.25
33151;BME280;19508;42.578;23.416;2023-04-02T00:35:55;92771.16;;;8.10;60.73
33151;BME280;19508;42.578;23.416;2023-04-02T00:40:50;92770.50;;;8.61;58.91
33151;BME280;19508;42.578;23.416;2023-04-02T00:43:17;92765.13;;;8.61;59.55
33151;BME280;19508;42.578;23.416;2023-04-02T00:45:46;92766.22;;;8.65;59.55
33151;BME280;19508;42.578;23.416;2023-04-02T00:48:47;92754.16;;;8.72;59.94
33151;BME280;19508;42.578;23.416;2023-04-02T00:51:34;92763.75;;;8.53;60.73
33151;BME280;19508;42.578;23.416;2023-04-02T00:54:05;92758.38;;;8.43;60.55
33151;BME280;19508;42.578;23.416;2023-04-02T00:56:39;92766.44;;;8.43;60.94
33151;BME280;19508;42.578;23.416;2023-04-02T00:59:28;92765.38;;;8.44;60.25
33151;BME280;19508;42.578;23.416;2023-04-02T01:04:51;92765.91;;;8.51;59.76
33151;BME280;19508;42.578;23.416;2023-04-02T01:07:23;92773.47;;;8.64;59.74
33151;BME280;19508;42.578;23.416;2023-04-02T01:15:36;92784.91;;;8.29;62.74
33151;BME280;19508;42.578;23.416;2023-04-02T01:18:10;92785.66;;;8.19;63.25
33151;BME280;19508;42.578;23.416;2023-04-02T01:23:15;92789.00;;;7.79;64.59
33151;BME280;19508;42.578;23.416;2023-04-02T01:29:09;92788.13;;;7.63;65.22
33151;BME280;19508;42.578;23.416;2023-04-02T01:31:37;92784.53;;;7.48;66.47
33151;BME280;19508;42.578;23.416;2023-04-02T01:34:06;92781.50;;;7.29;67.53
33151;BME280;19508;42.578;23.416;2023-04-02T01:36:49;92787.13;;;7.32;67.18
33151;BME280;19508;42.578;23.416;2023-04-02T01:39:30;92784.66;;;7.26;68.19
33151;BME280;19508;42.578;23.416;2023-04-02T01:42:28;92787.34;;;7.26;67.32
33151;BME280;19508;42.578;23.416;2023-04-02T01:45:17;92783.16;;;7.40;66.55
33151;BME280;19508;42.578;23.416;2023-04-02T01:47:44;92782.19;;;7.56;66.13
33151;BME280;19508;42.578;23.416;2023-04-02T01:52:46;92789.69;;;7.54;66.30
33151;BME280;19508;42.578;23.416;2023-04-02T01:55:29;92789.69;;;7.59;66.44
33151;BME280;19508;42.578;23.416;2023-04-02T01:57:56;92785.44;;;7.69;66.07
33151;BME280;19508;42.578;23.416;2023-04-02T02:00:23;92785.97;;;7.66;66.14
33151;BME280;19508;42.578;23.416;2023-04-02T02:02:50;92791.63;;;7.69;66.40
33151;BME280;19508;42.578;23.416;2023-04-02T02:05:19;92787.84;;;7.65;67.11
33151;BME280;19508;42.578;23.416;2023-04-02T02:07:45;92793.97;;;7.60;66.78
33151;BME280;19508;42.578;23.416;2023-04-02T02:10:26;92782.63;;;7.43;67.37
33151;BME280;19508;42.578;23.416;2023-04-02T02:12:53;92786.41;;;7.47;67.94
33151;BME280;19508;42.578;23.416;2023-04-02T02:15:22;92790.94;;;7.42;68.82
33151;BME280;19508;42.578;23.416;2023-04-02T02:17:48;92789.03;;;7.37;69.01
33151;BME280;19508;42.578;23.416;2023-04-02T02:20:15;92794.34;;;7.27;69.19
33151;BME280;19508;42.578;23.416;2023-04-02T02:22:48;92793.81;;;7.30;69.45
33151;BME280;19508;42.578;23.416;2023-04-02T02:25:21;92784.81;;;7.09;70.08
33151;BME280;19508;42.578;23.416;2023-04-02T02:30:44;92787.16;;;6.95;70.73
33151;BME280;19508;42.578;23.416;2023-04-02T02:36:12;92794.63;;;6.93;70.21
33151;BME280;19508;42.578;23.416;2023-04-02T02:38:50;92783.41;;;6.96;70.64
33151;BME280;19508;42.578;23.416;2023-04-02T02:41:34;92784.81;;;7.04;70.92
33151;BME280;19508;42.578;23.416;2023-04-02T02:46:39;92790.44;;;7.07;70.72
33151;BME280;19508;42.578;23.416;2023-04-02T02:49:14;92783.41;;;6.96;71.17
33151;BME280;19508;42.578;23.416;2023-04-02T02:51:49;92788.38;;;6.83;71.39
33151;BME280;19508;42.578;23.416;2023-04-02T02:54:17;92780.13;;;6.84;71.13
33151;BME280;19508;42.578;23.416;2023-04-02T02:56:52;92781.47;;;6.92;71.27
33151;BME280;19508;42.578;23.416;2023-04-02T02:59:20;92782.81;;;6.89;71.28
33151;BME280;19508;42.578;23.416;2023-04-02T03:01:46;92779.59;;;6.87;71.15
33151;BME280;19508;42.578;23.416;2023-04-02T03:04:13;92778.47;;;6.83;71.50
33151;BME280;19508;42.578;23.416;2023-04-02T03:06:48;92782.31;;;6.92;71.83
33151;BME280;19508;42.578;23.416;2023-04-02T03:09:20;92776.38;;;6.85;71.66
33151;BME280;19508;42.578;23.416;2023-04-02T03:14:45;92785.59;;;7.04;69.71
33151;BME280;19508;42.578;23.416;2023-04-02T03:17:24;92788.34;;;7.10;69.81
33151;BME280;19508;42.578;23.416;2023-04-02T03:19:56;92788.28;;;7.04;69.51
33151;BME280;19508;42.578;23.416;2023-04-02T03:22:44;92797.34;;;6.98;70.04
33151;BME280;19508;42.578;23.416;2023-04-02T03:25:23;92790.44;;;7.07;69.60
33151;BME280;19508;42.578;23.416;2023-04-02T03:27:54;92786.28;;;6.85;69.54
33151;BME280;19508;42.578;23.416;2023-04-02T03:30:39;92795.00;;;6.75;70.73
33151;BME280;19508;42.578;23.416;2023-04-02T03:38:55;92808.25;;;6.60;71.06
33151;BME280;19508;42.578;23.416;2023-04-02T03:41:42;92806.19;;;6.67;70.35
33151;BME280;19508;42.578;23.416;2023-04-02T03:44:22;92809.19;;;6.48;71.34
33151;BME280;19508;42.578;23.416;2023-04-02T03:47:00;92816.72;;;6.52;70.86
33151;BME280;19508;42.578;23.416;2023-04-02T03:49:45;92812.44;;;6.50;70.33
33151;BME280;19508;42.578;23.416;2023-04-02T03:52:33;92814.34;;;6.28;71.46
33151;BME280;19508;42.578;23.416;2023-04-02T03:55:02;92813.72;;;6.21;71.53
33151;BME280;19508;42.578;23.416;2023-04-02T03:57:42;92813.84;;;6.31;70.84
33151;BME280;19508;42.578;23.416;2023-04-02T04:00:21;92806.66;;;6.10;71.79
33151;BME280;19508;42.578;23.416;2023-04-02T04:02:53;92813.53;;;6.01;71.95
33151;BME280;19508;42.578;23.416;2023-04-02T04:05:36;92820.34;;;5.91;73.11
33151;BME280;19508;42.578;23.416;2023-04-02T04:08:13;92826.00;;;5.95;72.13
33151;BME280;19508;42.578;23.416;2023-04-02T04:10:41;92825.91;;;5.68;73.20
33151;BME280;19508;42.578;23.416;2023-04-02T04:13:19;92822.69;;;5.66;73.26
33151;BME280;19508;42.578;23.416;2023-04-02T04:15:59;92827.59;;;5.74;73.61
33151;BME280;19508;42.578;23.416;2023-04-02T04:18:40;92830.06;;;5.81;73.25
33151;BME280;19508;42.578;23.416;2023-04-02T04:21:18;92829.75;;;5.77;72.98
33151;BME280;19508;42.578;23.416;2023-04-02T04:23:54;92831.06;;;5.75;72.75
33151;BME280;19508;42.578;23.416;2023-04-02T04:26:34;92839.19;;;5.63;73.61
33151;BME280;19508;42.578;23.416;2023-04-02T04:29:12;92835.53;;;5.47;74.39
33151;BME280;19508;42.578;23.416;2023-04-02T04:31:47;92845.09;;;5.65;74.29
33151;BME280;19508;42.578;23.416;2023-04-02T04:34:31;92839.00;;;5.48;74.55
33151;BME280;19508;42.578;23.416;2023-04-02T04:37:02;92850.16;;;5.45;75.05
33151;BME280;19508;42.578;23.416;2023-04-02T04:39:44;92838.69;;;5.66;74.22
33151;BME280;19508;42.578;23.416;2023-04-02T04:42:21;92857.94;;;5.68;74.14
33151;BME280;19508;42.578;23.416;2023-04-02T04:45:12;92849.84;;;5.63;74.06
33151;BME280;19508;42.578;23.416;2023-04-02T04:47:47;92841.56;;;5.81;73.68
33151;BME280;19508;42.578;23.416;2023-04-02T04:50:21;92853.28;;;5.80;74.23
33151;BME280;19508;42.578;23.416;2023-04-02T04:52:49;92838.81;;;5.93;73.67
33151;BME280;19508;42.578;23.416;2023-04-02T04:55:27;92834.94;;;6.06;74.10
33151;BME280;19508;42.578;23.416;2023-04-02T04:58:01;92840.13;;;6.39;72.87
33151;BME280;19508;42.578;23.416;2023-04-02T05:00:52;92832.44;;;6.75;71.85
33151;BME280;19508;42.578;23.416;2023-04-02T05:03:34;92839.25;;;7.20;70.02
33151;BME280;19508;42.578;23.416;2023-04-02T05:08:41;92840.03;;;7.57;66.92
33151;BME280;19508;42.578;23.416;2023-04-02T05:11:22;92843.19;;;7.44;67.08
33151;BME280;19508;42.578;23.416;2023-04-02T05:14:38;92849.69;;;7.58;66.25
33151;BME280;19508;42.578;23.416;2023-04-02T05:17:19;92845.56;;;7.83;66.32
33151;BME280;19508;42.578;23.416;2023-04-02T05:19:51;92849.47;;;8.12;65.72
33151;BME280;19508;42.578;23.416;2023-04-02T05:25:11;92850.47;;;8.64;64.13
33151;BME280;19508;42.578;23.416;2023-04-02T05:33:05;92849.94;;;8.77;63.42
33151;BME280;19508;42.578;23.416;2023-04-02T05:35:43;92861.44;;;8.62;63.67
33151;BME280;19508;42.578;23.416;2023-04-02T05:38:18;92859.84;;;8.71;63.60
33151;BME280;19508;42.578;23.416;2023-04-02T05:40:45;92859.94;;;9.07;63.30
33151;BME280;19508;42.578;23.416;2023-04-02T05:43:15;92860.72;;;9.64;63.08
33151;BME280;19508;42.578;23.416;2023-04-02T05:45:45;92856.59;;;10.07;61.33
33151;BME280;19508;42.578;23.416;2023-04-02T05:48:18;92858.94;;;10.93;58.10
33151;BME280;19508;42.578;23.416;2023-04-02T05:50:48;92860.69;;;11.52;55.43
33151;BME280;19508;42.578;23.416;2023-04-02T05:53:29;92868.28;;;12.08;54.64
33151;BME280;19508;42.578;23.416;2023-04-02T05:56:02;92859.81;;;12.44;51.71
33151;BME280;19508;42.578;23.416;2023-04-02T06:04:26;92864.47;;;13.43;49.32
33151;BME280;19508;42.578;23.416;2023-04-02T06:06:58;92861.22;;;13.92;47.97
33151;BME280;19508;42.578;23.416;2023-04-02T06:14:40;92864.53;;;14.90;45.27
33151;BME280;19508;42.578;23.416;2023-04-02T06:17:05;92857.84;;;15.24;43.95
33151;BME280;19508;42.578;23.416;2023-04-02T06:19:34;92856.94;;;15.51;43.44
33151;BME280;19508;42.578;23.416;2023-04-02T06:22:36;92852.56;;;15.41;43.88
33151;BME280;19508;42.578;23.416;2023-04-02T06:25:08;92857.91;;;15.33;43.78
33151;BME280;19508;42.578;23.416;2023-04-02T06:27:37;92850.59;;;15.33;42.86
33151;BME280;19508;42.578;23.416;2023-04-02T06:30:05;92862.25;;;15.20;43.75
33151;BME280;19508;42.578;23.416;2023-04-02T06:32:34;92866.31;;;15.09;43.48
33151;BME280;19508;42.578;23.416;2023-04-02T06:34:59;92872.25;;;14.97;44.45
33151;BME280;19508;42.578;23.416;2023-04-02T06:37:32;92862.88;;;15.17;45.04
33151;BME280;19508;42.578;23.416;2023-04-02T06:39:59;92864.22;;;14.78;45.37
33151;BME280;19508;42.578;23.416;2023-04-02T06:42:33;92855.44;;;15.22;44.59
33151;BME280;19508;42.578;23.416;2023-04-02T06:45:00;92857.06;;;15.46;43.85
33151;BME280;19508;42.578;23.416;2023-04-02T06:47:31;92861.75;;;15.54;43.94
33151;BME280;19508;42.578;23.416;2023-04-02T06:50:10;92862.59;;;16.30;42.14
33151;BME280;19508;42.578;23.416;2023-04-02T06:52:45;92858.41;;;16.55;40.90
33151;BME280;19508;42.578;23.416;2023-04-02T06:55:33;92861.63;;;16.97;39.84
33151;BME280;19508;42.578;23.416;2023-04-02T06:58:01;92865.44;;;16.56;39.44
33151;BME280;19508;42.578;23.416;2023-04-02T07:00:36;92865.41;;;16.79;39.03
33151;BME280;19508;42.578;23.416;2023-04-02T07:03:07;92869.00;;;16.65;38.94
33151;BME280;19508;42.578;23.416;2023-04-02T07:05:37;92868.25;;;16.34;40.85
33151;BME280;19508;42.578;23.416;2023-04-02T07:08:02;92863.28;;;16.67;40.33
33151;BME280;19508;42.578;23.416;2023-04-02T07:10:28;92868.84;;;16.31;41.21
33151;BME280;19508;42.578;23.416;2023-04-02T07:12:53;92879.94;;;15.90;41.01
33151;BME280;19508;42.578;23.416;2023-04-02T07:15:19;92880.97;;;16.25;41.85
33151;BME280;19508;42.578;23.416;2023-04-02T07:17:45;92880.13;;;16.78;40.97
33151;BME280;19508;42.578;23.416;2023-04-02T07:20:28;92882.66;;;17.23;39.66
33151;BME280;19508;42.578;23.416;2023-04-02T07:22:54;92882.88;;;17.61;39.57
33151;BME280;19508;42.578;23.416;2023-04-02T07:25:20;92887.31;;;17.31;40.46
33151;BME280;19508;42.578;23.416;2023-04-02T07:27:46;92892.22;;;17.11;40.41
33151;BME280;19508;42.578;23.416;2023-04-02T07:30:12;92892.78;;;17.57;40.12
33151;BME280;19508;42.578;23.416;2023-04-02T07:32:37;92889.91;;;17.62;38.62
33151;BME280;19508;42.578;23.416;2023-04-02T07:35:03;92899.53;;;17.85;38.75
33151;BME280;19508;42.578;23.416;2023-04-02T07:37:29;92895.31;;;16.79;41.41
33151;BME280;19508;42.578;23.416;2023-04-02T07:39:55;92891.59;;;17.23;39.95
33151;BME280;19508;42.578;23.416;2023-04-02T07:42:21;92895.44;;;17.13;39.80
33151;BME280;19508;42.578;23.416;2023-04-02T07:44:46;92891.06;;;17.95;38.53
33151;BME280;19508;42.578;23.416;2023-04-02T07:47:11;92890.41;;;18.07;37.82
33151;BME280;19508;42.578;23.416;2023-04-02T07:49:37;92886.09;;;18.06;38.61
33151;BME280;19508;42.578;23.416;2023-04-02T07:52:03;92892.00;;;17.99;37.96
33151;BME280;19508;42.578;23.416;2023-04-02T07:54:28;92892.03;;;17.91;37.19
33151;BME280;19508;42.578;23.416;2023-04-02T07:56:54;92883.38;;;18.06;38.19
33151;BME280;19508;42.578;23.416;2023-04-02T07:59:20;92895.47;;;18.43;37.37
33151;BME280;19508;42.578;23.416;2023-04-02T08:01:45;92885.41;;;17.57;37.77
33151;BME280;19508;42.578;23.416;2023-04-02T08:04:21;92899.53;;;17.76;39.07
33151;BME280;19508;42.578;23.416;2023-04-02T08:06:48;92906.75;;;17.72;38.97
33151;BME280;19508;42.578;23.416;2023-04-02T08:09:15;92892.63;;;18.22;38.63
33151;BME280;19508;42.578;23.416;2023-04-02T08:11:40;92894.19;;;19.34;38.56
33151;BME280;19508;42.578;23.416;2023-04-02T08:14:09;92893.41;;;18.96;36.69
33151;BME280;19508;42.578;23.416;2023-04-02T08:16:49;92910.84;;;19.71;36.71
33151;BME280;19508;42.578;23.416;2023-04-02T08:19:15;92898.25;;;19.79;34.83
33151;BME280;19508;42.578;23.416;2023-04-02T08:21:41;92887.25;;;20.41;33.47
33151;BME280;19508;42.578;23.416;2023-04-02T08:24:07;92894.81;;;20.44;33.79
33151;BME280;19508;42.578;23.416;2023-04-02T08:26:32;92905.13;;;19.85;35.35
33151;BME280;19508;42.578;23.416;2023-04-02T08:28:58;92904.13;;;19.30;35.90
33151;BME280;19508;42.578;23.416;2023-04-02T08:31:23;92901.34;;;18.63;36.11
33151;BME280;19508;42.578;23.416;2023-04-02T08:33:49;92905.34;;;18.82;36.39
33151;BME280;19508;42.578;23.416;2023-04-02T08:36:18;92911.47;;;19.09;35.71
33151;BME280;19508;42.578;23.416;2023-04-02T08:38:44;92917.25;;;18.52;35.32
33151;BME280;19508;42.578;23.416;2023-04-02T08:41:20;92915.34;;;19.37;33.85
33151;BME280;19508;42.578;23.416;2023-04-02T08:46:32;92908.03;;;19.59;33.40
33151;BME280;19508;42.578;23.416;2023-04-02T08:49:07;92906.06;;;19.00;34.29
33151;BME280;19508;42.578;23.416;2023-04-02T08:51:36;92904.88;;;18.80;35.25
33151;BME280;19508;42.578;23.416;2023-04-02T08:54:25;92916.94;;;17.58;37.38
33151;BME280;19508;42.578;23.416;2023-04-02T08:56:55;92915.81;;;17.51;37.52
33151;BME280;19508;42.578;23.416;2023-04-02T08:59:32;92907.88;;;17.80;37.56
33151;BME280;19508;42.578;23.416;2023-04-02T09:02:37;92907.44;;;16.73;39.05
33151;BME280;19508;42.578;23.416;2023-04-02T09:05:06;92907.53;;;16.99;37.85
33151;BME280;19508;42.578;23.416;2023-04-02T09:07:32;92888.81;;;18.06;36.34
33151;BME280;19508;42.578;23.416;2023-04-02T09:09:58;92904.84;;;17.82;36.16
33151;BME280;19508;42.578;23.416;2023-04-02T09:12:30;92904.91;;;19.10;33.55
33151;BME280;19508;42.578;23.416;2023-04-02T09:17:25;92883.78;;;20.20;31.01
33151;BME280;19508;42.578;23.416;2023-04-02T09:22:20;92897.28;;;20.16;31.48
33151;BME280;19508;42.578;23.416;2023-04-02T09:24:55;92899.75;;;18.70;33.26
33151;BME280;19508;42.578;23.416;2023-04-02T09:27:24;92900.94;;;17.48;35.45
33151;BME280;19508;42.578;23.416;2023-04-02T09:29:52;92889.41;;;17.51;36.28
33151;BME280;19508;42.578;23.416;2023-04-02T09:32:32;92891.91;;;18.60;31.48
33151;BME280;19508;42.578;23.416;2023-04-02T09:35:16;92893.97;;;19.10;31.23
33151;BME280;19508;42.578;23.416;2023-04-02T09:37:42;92876.59;;;19.94;29.11
33151;BME280;19508;42.578;23.416;2023-04-02T09:40:24;92875.06;;;19.64;30.12
33151;BME280;19508;42.578;23.416;2023-04-02T09:43:11;92880.88;;;19.83;31.09
33151;BME280;19508;42.578;23.416;2023-04-02T09:45:38;92872.06;;;19.27;31.32
33151;BME280;19508;42.578;23.416;2023-04-02T09:48:18;92874.50;;;18.26;32.24
33151;BME280;19508;42.578;23.416;2023-04-02T09:50:45;92884.81;;;18.12;31.51
33151;BME280;19508;42.578;23.416;2023-04-02T09:53:48;92878.03;;;18.27;32.01
33151;BME280;19508;42.578;23.416;2023-04-02T09:56:18;92877.34;;;18.56;31.18
33151;BME280;19508;42.578;23.416;2023-04-02T09:59:00;92881.34;;;19.56;30.66
33151;BME280;19508;42.578;23.416;2023-04-02T10:01:35;92878.22;;;20.28;29.12
33151;BME280;19508;42.578;23.416;2023-04-02T10:04:04;92873.09;;;21.30;28.08
33151;BME280;19508;42.578;23.416;2023-04-02T10:06:32;92857.91;;;21.97;28.43
33151;BME280;19508;42.578;23.416;2023-04-02T10:09:18;92868.63;;;22.02;26.78
33151;BME280;19508;42.578;23.416;2023-04-02T10:11:47;92869.84;;;20.79;28.41
33151;BME280;19508;42.578;23.416;2023-04-02T10:14:17;92867.97;;;20.25;28.76
33151;BME280;19508;42.578;23.416;2023-04-02T10:16:49;92861.84;;;18.86;31.29
33151;BME280;19508;42.578;23.416;2023-04-02T10:19:28;92870.81;;;18.40;32.47
33151;BME280;19508;42.578;23.416;2023-04-02T10:21:57;92878.97;;;18.40;32.63
33151;BME280;19508;42.578;23.416;2023-04-02T10:24:26;92872.81;;;18.60;33.07
33151;BME280;19508;42.578;23.416;2023-04-02T10:30:19;92870.34;;;18.38;32.28
33151;BME280;19508;42.578;23.416;2023-04-02T10:32:56;92872.16;;;19.10;31.36
33151;BME280;19508;42.578;23.416;2023-04-02T10:38:12;92863.91;;;21.01;29.16
33151;BME280;19508;42.578;23.416;2023-04-02T10:40:47;92855.50;;;21.43;27.81
33151;BME280;19508;42.578;23.416;2023-04-02T10:43:42;92862.59;;;20.17;29.12
33151;BME280;19508;42.578;23.416;2023-04-02T10:46:21;92873.00;;;19.61;29.54
33151;BME280;19508;42.578;23.416;2023-04-02T10:57:01;92860.88;;;20.45;29.68
33151;BME280;19508;42.578;23.416;2023-04-02T10:59:33;92865.88;;;22.02;28.01
33151;BME280;19508;42.578;23.416;2023-04-02T11:02:03;92856.41;;;22.99;25.80
33151;BME280;19508;42.578;23.416;2023-04-02T11:04:50;92847.34;;;23.30;26.17
33151;BME280;19508;42.578;23.416;2023-04-02T11:07:20;92854.97;;;22.74;25.48
33151;BME280;19508;42.578;23.416;2023-04-02T11:09:51;92843.44;;;22.68;25.57
33151;BME280;19508;42.578;23.416;2023-04-02T11:12:42;92852.25;;;22.46;25.75
33151;BME280;19508;42.578;23.416;2023-04-02T11:15:15;92852.63;;;22.60;27.19
33151;BME280;19508;42.578;23.416;2023-04-02T11:17:43;92851.03;;;22.03;27.73
33151;BME280;19508;42.578;23.416;2023-04-02T11:23:15;92849.75;;;22.41;29.53
33151;BME280;19508;42.578;23.416;2023-04-02T11:25:42;92850.94;;;22.71;28.92
33151;BME280;19508;42.578;23.416;2023-04-02T11:28:27;92852.72;;;21.67;28.47
33151;BME280;19508;42.578;23.416;2023-04-02T11:30:53;92847.94;;;21.52;29.71
33151;BME280;19508;42.578;23.416;2023-04-02T11:33:41;92856.81;;;20.64;29.58
33151;BME280;19508;42.578;23.416;2023-04-02T11:39:10;92853.97;;;19.43;31.50
33151;BME280;19508;42.578;23.416;2023-04-02T11:44:26;92839.66;;;21.89;28.33
33151;BME280;19508;42.578;23.416;2023-04-02T11:47:16;92836.31;;;20.82;29.06
33151;BME280;19508;42.578;23.416;2023-04-02T11:52:25;92848.03;;;19.71;31.52
33151;BME280;19508;42.578;23.416;2023-04-02T12:06:04;92843.16;;;20.76;31.99
33151;BME280;19508;42.578;23.416;2023-04-02T12:11:32;92835.84;;;21.65;29.16
33151;BME280;19508;42.578;23.416;2023-04-02T12:13:59;92845.41;;;19.95;30.49
33151;BME280;19508;42.578;23.416;2023-04-02T12:16:25;92848.13;;;19.54;31.52
33151;BME280;19508;42.578;23.416;2023-04-02T12:18:55;92845.59;;;19.49;32.42
33151;BME280;19508;42.578;23.416;2023-04-02T12:21:24;92842.84;;;20.11;32.08
33151;BME280;19508;42.578;23.416;2023-04-02T12:23:52;92834.53;;;20.86;30.12
33151;BME280;19508;42.578;23.416;2023-04-02T12:26:30;92846.81;;;20.02;30.28
33151;BME280;19508;42.578;23.416;2023-04-02T12:29:16;92845.34;;;19.12;31.88
33151;BME280;19508;42.578;23.416;2023-04-02T12:31:46;92842.66;;;19.54;31.48
33151;BME280;19508;42.578;23.416;2023-04-02T12:34:18;92843.31;;;19.59;32.02
33151;BME280;19508;42.578;23.416;2023-04-02T12:39:24;92842.31;;;19.55;31.27
33151;BME280;19508;42.578;23.416;2023-04-02T12:41:49;92838.59;;;21.53;29.86
33151;BME280;19508;42.578;23.416;2023-04-02T12:44:18;92837.88;;;22.65;27.73
33151;BME280;19508;42.578;23.416;2023-04-02T12:46:46;92831.72;;;21.72;27.20
33151;BME280;19508;42.578;23.416;2023-04-02T12:49:26;92829.16;;;21.91;28.71
33151;BME280;19508;42.578;23.416;2023-04-02T12:51:54;92835.16;;;20.59;30.75
33151;BME280;19508;42.578;23.416;2023-04-02T12:54:20;92824.69;;;20.61;29.59
33151;BME280;19508;42.578;23.416;2023-04-02T12:56:47;92830.66;;;21.76;28.93
33151;BME280;19508;42.578;23.416;2023-04-02T13:01:58;92816.13;;;22.88;27.13
33151;BME280;19508;42.578;23.416;2023-04-02T13:04:24;92818.72;;;21.68;28.94
33151;BME280;19508;42.578;23.416;2023-04-02T13:06:51;92817.53;;;20.35;29.65
33151;BME280;19508;42.578;23.416;2023-04-02T13:09:40;92819.91;;;20.82;31.16
33151;BME280;19508;42.578;23.416;2023-04-02T13:14:58;92804.81;;;23.75;26.25
33151;BME280;19508;42.578;23.416;2023-04-02T13:17:45;92815.66;;;21.98;27.87
33151;BME280;19508;42.578;23.416;2023-04-02T13:20:34;92809.19;;;20.65;29.22
33151;BME280;19508;42.578;23.416;2023-04-02T13:23:47;92811.50;;;19.96;29.62
33151;BME280;19508;42.578;23.416;2023-04-02T13:25:48;92822.09;;;18.76;31.82
33151;BME280;19508;42.578;23.416;2023-04-02T13:28:14;92819.53;;;19.30;31.28
33151;BME280;19508;42.578;23.416;2023-04-02T13:30:39;92812.88;;;18.51;32.61
33151;BME280;19508;42.578;23.416;2023-04-02T13:33:05;92811.03;;;18.81;31.94
33151;BME280;19508;42.578;23.416;2023-04-02T13:35:31;92818.94;;;18.10;34.01
33151;BME280;19508;42.578;23.416;2023-04-02T13:37:56;92803.63;;;17.88;33.41
33151;BME280;19508;42.578;23.416;2023-04-02T13:40:21;92819.59;;;18.07;32.99
33151;BME280;19508;42.578;23.416;2023-04-02T13:42:47;92821.38;;;17.77;34.09
33151;BME280;19508;42.578;23.416;2023-04-02T13:47:47;92816.25;;;17.58;33.97
33151;BME280;19508;42.578;23.416;2023-04-02T13:50:21;92814.00;;;17.26;34.17
33151;BME280;19508;42.578;23.416;2023-04-02T13:52:50;92819.31;;;17.74;33.56
33151;BME280;19508;42.578;23.416;2023-04-02T13:55:18;92814.50;;;17.45;33.93
33151;BME280;19508;42.578;23.416;2023-04-02T13:57:45;92819.00;;;17.75;33.33
33151;BME280;19508;42.578;23.416;2023-04-02T14:00:11;92815.59;;;18.04;33.26
33151;BME280;19508;42.578;23.416;2023-04-02T14:02:43;92810.91;;;18.22;33.47
33151;BME280;19508;42.578;23.416;2023-04-02T14:05:38;92810.78;;;17.93;34.12
33151;BME280;19508;42.578;23.416;2023-04-02T14:08:10;92805.22;;;17.63;33.33
33151;BME280;19508;42.578;23.416;2023-04-02T14:10:52;92798.94;;;18.06;33.73
33151;BME280;19508;42.578;23.416;2023-04-02T14:22:03;92810.47;;;17.34;35.48
33151;BME280;19508;42.578;23.416;2023-04-02T14:29:59;92802.97;;;17.39;33.56
33151;BME280;19508;42.578;23.416;2023-04-02T14:37:56;92792.19;;;18.97;30.16
33151;BME280;19508;42.578;23.416;2023-04-02T14:40:38;92778.41;;;20.92;28.68
33151;BME280;19508;42.578;23.416;2023-04-02T14:50:56;92777.94;;;22.67;25.28
33151;BME280;19508;42.578;23.416;2023-04-02T14:53:34;92778.22;;;23.60;24.21
33151;BME280;19508;42.578;23.416;2023-04-02T14:56:06;92780.09;;;24.14;23.48
33151;BME280;19508;42.578;23.416;2023-04-02T14:58:39;92782.72;;;23.68;24.58
33151;BME280;19508;42.578;23.416;2023-04-02T15:01:24;92794.41;;;22.67;25.18
33151;BME280;19508;42.578;23.416;2023-04-02T15:03:58;92797.09;;;21.27;27.20
33151;BME280;19508;42.578;23.416;2023-04-02T15:06:30;92794.94;;;20.71;27.61
33151;BME280;19508;42.578;23.416;2023-04-02T15:09:04;92798.81;;;21.31;26.70
33151;BME280;19508;42.578;23.416;2023-04-02T15:11:34;92808.59;;;20.59;27.90
33151;BME280;19508;42.578;23.416;2023-04-02T15:14:10;92807.81;;;20.83;27.49
33151;BME280;19508;42.578;23.416;2023-04-02T15:16:38;92802.53;;;21.51;26.73
33151;BME280;19508;42.578;23.416;2023-04-02T15:19:10;92808.34;;;22.46;25.71
33151;BME280;19508;42.578;23.416;2023-04-02T15:25:13;92814.03;;;19.81;28.41
33151;BME280;19508;42.578;23.416;2023-04-02T15:29:58;92832.38;;;18.24;31.26
33151;BME280;19508;42.578;23.416;2023-04-02T15:37:52;92830.34;;;17.60;31.96
33151;BME280;19508;42.578;23.416;2023-04-02T15:40:40;92835.31;;;17.75;31.73
33151;BME280;19508;42.578;23.416;2023-04-02T15:43:17;92826.19;;;17.97;31.53
33151;BME280;19508;42.578;23.416;2023-04-02T15:56:51;92837.13;;;16.49;35.04
33151;BME280;19508;42.578;23.416;2023-04-02T16:02:13;92843.19;;;16.15;34.97
33151;BME280;19508;42.578;23.416;2023-04-02T16:10:37;92851.31;;;15.25;38.82
33151;BME280;19508;42.578;23.416;2023-04-02T16:13:14;92845.34;;;15.01;40.06
33151;BME280;19508;42.578;23.416;2023-04-02T16:15:44;92847.88;;;14.83;41.38
33151;BME280;19508;42.578;23.416;2023-04-02T16:21:22;92862.09;;;14.34;42.86
33151;BME280;19508;42.578;23.416;2023-04-02T16:23:48;92861.28;;;14.20;43.49
33151;BME280;19508;42.578;23.416;2023-04-02T16:26:34;92854.22;;;14.05;43.72
33151;BME280;19508;42.578;23.416;2023-04-02T16:31:56;92856.44;;;13.70;42.88